sensor_id;sensor_type;location;lat;lon;timestamp;P1;durP1;ratioP1;P2;durP2;ratioP2
52268;SDS011;38224;50.950;4.100;2022-12-11T00:00:38;48.37;;;25.27;;
52268;SDS011;38224;50.950;4.100;2022-12-11T00:03:03;46.35;;;23.80;;
52268;SDS011;38224;50.950;4.100;2022-12-11T00:05:29;48.55;;;24.75;;
52268;SDS011;38224;50.950;4.100;2022-12-11T00:07:54;50.70;;;25.43;;
52268;SDS011;38224;50.950;4.100;2022-12-11T00:10:19;51.95;;;26.30;;
52268;SDS011;38224;50.950;4.100;2022-12-11T00:12:44;55.63;;;26.93;;
52268;SDS011;38224;50.950;4.100;2022-12-11T00:15:10;50.42;;;26.08;;
52268;SDS011;38224;50.950;4.100;2022-12-11T00:17:35;50.10;;;25.08;;
52268;SDS011;38224;50.950;4.100;2022-12-11T00:20:00;52.88;;;27.05;;
52268;SDS011;38224;50.950;4.100;2022-12-11T00:22:26;49.55;;;24.98;;
52268;SDS011;38224;50.950;4.100;2022-12-11T00:24:53;57.47;;;26.90;;
52268;SDS011;38224;50.950;4.100;2022-12-11T00:27:18;50.50;;;24.60;;
52268;SDS011;38224;50.950;4.100;2022-12-11T00:29:43;55.28;;;23.48;;
52268;SDS011;38224;50.950;4.100;2022-12-11T00:32:09;45.25;;;23.05;;
52268;SDS011;38224;50.950;4.100;2022-12-11T00:34:34;56.43;;;25.83;;
52268;SDS011;38224;50.950;4.100;2022-12-11T00:36:59;51.13;;;24.13;;
52268;SDS011;38224;50.950;4.100;2022-12-11T00:39:24;56.97;;;25.47;;
52268;SDS011;38224;50.950;4.100;2022-12-11T00:41:50;50.77;;;24.37;;
52268;SDS011;38224;50.950;4.100;2022-12-11T00:44:15;46.47;;;23.93;;
52268;SDS011;38224;50.950;4.100;2022-12-11T00:46:40;50.80;;;24.60;;
52268;SDS011;38224;50.950;4.100;2022-12-11T00:49:05;51.78;;;24.50;;
52268;SDS011;38224;50.950;4.100;2022-12-11T00:51:31;49.17;;;24.83;;
52268;SDS011;38224;50.950;4.100;2022-12-11T00:53:56;53.65;;;24.67;;
52268;SDS011;38224;50.950;4.100;2022-12-11T00:56:21;49.97;;;23.50;;
52268;SDS011;38224;50.950;4.100;2022-12-11T00:58:47;52.20;;;23.27;;
52268;SDS011;38224;50.950;4.100;2022-12-11T01:01:17;49.13;;;23.30;;
52268;SDS011;38224;50.950;4.100;2022-12-11T01:03:42;49.53;;;23.52;;
52268;SDS011;38224;50.950;4.100;2022-12-11T01:06:11;51.83;;;23.23;;
52268;SDS011;38224;50.950;4.100;2022-12-11T01:08:37;47.88;;;23.27;;
52268;SDS011;38224;50.950;4.100;2022-12-11T01:11:04;47.43;;;22.63;;
52268;SDS011;38224;50.950;4.100;2022-12-11T01:13:29;51.58;;;23.88;;
52268;SDS011;38224;50.950;4.100;2022-12-11T01:15:55;51.33;;;23.23;;
52268;SDS011;38224;50.950;4.100;2022-12-11T01:18:20;43.20;;;22.63;;
52268;SDS011;38224;50.950;4.100;2022-12-11T01:20:45;46.35;;;22.98;;
52268;SDS011;38224;50.950;4.100;2022-12-11T01:23:11;47.47;;;22.87;;
52268;SDS011;38224;50.950;4.100;2022-12-11T01:25:37;46.90;;;22.30;;
52268;SDS011;38224;50.950;4.100;2022-12-11T01:28:02;48.97;;;23.15;;
52268;SDS011;38224;50.950;4.100;2022-12-11T01:30:27;50.60;;;23.40;;
52268;SDS011;38224;50.950;4.100;2022-12-11T01:32:53;51.95;;;23.83;;
52268;SDS011;38224;50.950;4.100;2022-12-11T01:35:18;46.55;;;22.63;;
52268;SDS011;38224;50.950;4.100;2022-12-11T01:37:43;48.03;;;23.48;;
52268;SDS011;38224;50.950;4.100;2022-12-11T01:40:10;47.17;;;23.42;;
52268;SDS011;38224;50.950;4.100;2022-12-11T01:42:36;49.78;;;23.05;;
52268;SDS011;38224;50.950;4.100;2022-12-11T01:47:45;48.55;;;21.92;;
52268;SDS011;38224;50.950;4.100;2022-12-11T01:50:10;46.17;;;23.55;;
52268;SDS011;38224;50.950;4.100;2022-12-11T01:52:36;51.05;;;22.77;;
52268;SDS011;38224;50.950;4.100;2022-12-11T01:55:01;55.65;;;24.40;;
52268;SDS011;38224;50.950;4.100;2022-12-11T01:57:26;53.90;;;25.33;;
52268;SDS011;38224;50.950;4.100;2022-12-11T01:59:52;54.70;;;24.50;;
52268;SDS011;38224;50.950;4.100;2022-12-11T02:02:21;47.97;;;23.88;;
52268;SDS011;38224;50.950;4.100;2022-12-11T02:04:48;54.80;;;24.30;;
52268;SDS011;38224;50.950;4.100;2022-12-11T02:07:14;50.83;;;23.90;;
52268;SDS011;38224;50.950;4.100;2022-12-11T02:09:40;46.88;;;21.85;;
52268;SDS011;38224;50.950;4.100;2022-12-11T02:14:38;49.37;;;23.50;;
52268;SDS011;38224;50.950;4.100;2022-12-11T02:17:21;51.17;;;22.33;;
52268;SDS011;38224;50.950;4.100;2022-12-11T02:22:27;51.67;;;23.95;;
52268;SDS011;38224;50.950;4.100;2022-12-11T02:24:59;50.45;;;23.17;;
52268;SDS011;38224;50.950;4.100;2022-12-11T02:27:29;54.63;;;23.85;;
52268;SDS011;38224;50.950;4.100;2022-12-11T02:30:09;50.08;;;23.90;;
52268;SDS011;38224;50.950;4.100;2022-12-11T02:35:05;53.67;;;25.25;;
52268;SDS011;38224;50.950;4.100;2022-12-11T02:37:32;50.38;;;23.45;;
52268;SDS011;38224;50.950;4.100;2022-12-11T02:39:59;52.15;;;23.60;;
52268;SDS011;38224;50.950;4.100;2022-12-11T02:42:27;55.22;;;25.90;;
52268;SDS011;38224;50.950;4.100;2022-12-11T02:44:54;55.92;;;25.00;;
52268;SDS011;38224;50.950;4.100;2022-12-11T02:47:20;57.47;;;24.60;;
52268;SDS011;38224;50.950;4.100;2022-12-11T02:49:47;60.85;;;26.15;;
52268;SDS011;38224;50.950;4.100;2022-12-11T02:52:13;51.13;;;24.70;;
52268;SDS011;38224;50.950;4.100;2022-12-11T02:54:39;53.10;;;25.25;;
52268;SDS011;38224;50.950;4.100;2022-12-11T02:57:07;63.30;;;27.17;;
52268;SDS011;38224;50.950;4.100;2022-12-11T02:59:38;62.65;;;27.17;;
52268;SDS011;38224;50.950;4.100;2022-12-11T03:02:03;58.95;;;26.30;;
52268;SDS011;38224;50.950;4.100;2022-12-11T03:04:29;56.10;;;25.00;;
52268;SDS011;38224;50.950;4.100;2022-12-11T03:06:55;57.63;;;26.25;;
52268;SDS011;38224;50.950;4.100;2022-12-11T03:09:24;64.55;;;27.08;;
52268;SDS011;38224;50.950;4.100;2022-12-11T03:11:49;57.65;;;25.58;;
52268;SDS011;38224;50.950;4.100;2022-12-11T03:14:14;63.47;;;28.00;;
52268;SDS011;38224;50.950;4.100;2022-12-11T03:16:59;61.40;;;27.27;;
52268;SDS011;38224;50.950;4.100;2022-12-11T03:19:35;69.88;;;29.65;;
52268;SDS011;38224;50.950;4.100;2022-12-11T03:24:43;60.67;;;28.23;;
52268;SDS011;38224;50.950;4.100;2022-12-11T03:27:14;67.40;;;26.50;;
52268;SDS011;38224;50.950;4.100;2022-12-11T03:29:44;59.85;;;29.17;;
52268;SDS011;38224;50.950;4.100;2022-12-11T03:32:13;71.93;;;31.98;;
52268;SDS011;38224;50.950;4.100;2022-12-11T03:34:48;61.75;;;29.58;;
52268;SDS011;38224;50.950;4.100;2022-12-11T03:37:14;63.80;;;31.05;;
52268;SDS011;38224;50.950;4.100;2022-12-11T03:39:46;65.88;;;30.17;;
52268;SDS011;38224;50.950;4.100;2022-12-11T03:42:12;63.28;;;31.98;;
52268;SDS011;38224;50.950;4.100;2022-12-11T03:44:38;66.53;;;29.38;;
52268;SDS011;38224;50.950;4.100;2022-12-11T03:47:05;63.58;;;30.65;;
52268;SDS011;38224;50.950;4.100;2022-12-11T03:49:33;61.75;;;29.33;;
52268;SDS011;38224;50.950;4.100;2022-12-11T03:51:59;68.18;;;30.65;;
52268;SDS011;38224;50.950;4.100;2022-12-11T03:54:26;67.57;;;30.67;;
52268;SDS011;38224;50.950;4.100;2022-12-11T03:56:52;72.80;;;31.70;;
52268;SDS011;38224;50.950;4.100;2022-12-11T03:59:19;66.47;;;30.08;;
52268;SDS011;38224;50.950;4.100;2022-12-11T04:01:44;63.53;;;30.83;;
52268;SDS011;38224;50.950;4.100;2022-12-11T04:04:10;71.80;;;31.60;;
52268;SDS011;38224;50.950;4.100;2022-12-11T04:06:35;69.63;;;29.60;;
52268;SDS011;38224;50.950;4.100;2022-12-11T04:09:00;67.83;;;28.20;;
52268;SDS011;38224;50.950;4.100;2022-12-11T04:11:25;67.53;;;30.93;;
52268;SDS011;38224;50.950;4.100;2022-12-11T04:14:03;58.28;;;29.63;;
52268;SDS011;38224;50.950;4.100;2022-12-11T04:16:47;61.40;;;30.35;;
52268;SDS011;38224;50.950;4.100;2022-12-11T04:19:12;64.63;;;27.52;;
52268;SDS011;38224;50.950;4.100;2022-12-11T04:21:56;64.10;;;28.02;;
52268;SDS011;38224;50.950;4.100;2022-12-11T04:24:40;62.05;;;28.13;;
52268;SDS011;38224;50.950;4.100;2022-12-11T04:27:05;70.05;;;29.45;;
52268;SDS011;38224;50.950;4.100;2022-12-11T04:29:30;59.45;;;27.83;;
52268;SDS011;38224;50.950;4.100;2022-12-11T04:31:56;57.40;;;27.27;;
52268;SDS011;38224;50.950;4.100;2022-12-11T04:34:21;63.78;;;30.40;;
52268;SDS011;38224;50.950;4.100;2022-12-11T04:36:46;65.20;;;27.60;;
52268;SDS011;38224;50.950;4.100;2022-12-11T04:39:11;62.05;;;28.48;;
52268;SDS011;38224;50.950;4.100;2022-12-11T04:41:37;71.20;;;30.67;;
52268;SDS011;38224;50.950;4.100;2022-12-11T04:44:03;59.75;;;29.25;;
52268;SDS011;38224;50.950;4.100;2022-12-11T04:46:28;60.05;;;29.15;;
52268;SDS011;38224;50.950;4.100;2022-12-11T04:48:53;68.87;;;30.13;;
52268;SDS011;38224;50.950;4.100;2022-12-11T04:51:19;64.03;;;29.42;;
52268;SDS011;38224;50.950;4.100;2022-12-11T04:53:44;66.05;;;30.65;;
52268;SDS011;38224;50.950;4.100;2022-12-11T04:56:11;63.63;;;29.08;;
52268;SDS011;38224;50.950;4.100;2022-12-11T04:58:37;64.15;;;29.05;;
52268;SDS011;38224;50.950;4.100;2022-12-11T05:01:06;67.43;;;30.55;;
52268;SDS011;38224;50.950;4.100;2022-12-11T05:03:31;70.57;;;31.83;;
52268;SDS011;38224;50.950;4.100;2022-12-11T05:05:56;68.03;;;31.47;;
52268;SDS011;38224;50.950;4.100;2022-12-11T05:08:22;64.63;;;29.73;;
52268;SDS011;38224;50.950;4.100;2022-12-11T05:10:56;69.87;;;30.80;;
52268;SDS011;38224;50.950;4.100;2022-12-11T05:13:22;70.32;;;32.90;;
52268;SDS011;38224;50.950;4.100;2022-12-11T05:15:47;69.38;;;31.35;;
52268;SDS011;38224;50.950;4.100;2022-12-11T05:18:12;76.70;;;32.75;;
52268;SDS011;38224;50.950;4.100;2022-12-11T05:20:38;63.10;;;29.95;;
52268;SDS011;38224;50.950;4.100;2022-12-11T05:23:03;75.03;;;31.50;;
52268;SDS011;38224;50.950;4.100;2022-12-11T05:25:28;76.03;;;33.80;;
52268;SDS011;38224;50.950;4.100;2022-12-11T05:27:54;72.70;;;34.75;;
52268;SDS011;38224;50.950;4.100;2022-12-11T05:30:19;78.17;;;34.67;;
52268;SDS011;38224;50.950;4.100;2022-12-11T05:32:44;70.03;;;32.10;;
52268;SDS011;38224;50.950;4.100;2022-12-11T05:35:09;74.47;;;33.27;;
52268;SDS011;38224;50.950;4.100;2022-12-11T05:37:35;73.18;;;33.75;;
52268;SDS011;38224;50.950;4.100;2022-12-11T05:40:00;73.87;;;31.87;;
52268;SDS011;38224;50.950;4.100;2022-12-11T05:42:25;81.95;;;35.13;;
52268;SDS011;38224;50.950;4.100;2022-12-11T05:44:51;80.70;;;33.70;;
52268;SDS011;38224;50.950;4.100;2022-12-11T05:47:16;75.27;;;35.57;;
52268;SDS011;38224;50.950;4.100;2022-12-11T05:49:44;86.30;;;34.63;;
52268;SDS011;38224;50.950;4.100;2022-12-11T05:52:09;86.38;;;35.90;;
52268;SDS011;38224;50.950;4.100;2022-12-11T05:54:34;78.20;;;34.67;;
52268;SDS011;38224;50.950;4.100;2022-12-11T05:56:59;79.28;;;34.92;;
52268;SDS011;38224;50.950;4.100;2022-12-11T05:59:25;80.70;;;36.03;;
52268;SDS011;38224;50.950;4.100;2022-12-11T06:01:50;75.07;;;34.65;;
52268;SDS011;38224;50.950;4.100;2022-12-11T06:04:15;88.40;;;37.80;;
52268;SDS011;38224;50.950;4.100;2022-12-11T06:06:40;79.67;;;36.63;;
52268;SDS011;38224;50.950;4.100;2022-12-11T06:09:11;80.50;;;33.78;;
52268;SDS011;38224;50.950;4.100;2022-12-11T06:11:36;85.88;;;36.53;;
52268;SDS011;38224;50.950;4.100;2022-12-11T06:14:02;86.67;;;34.70;;
52268;SDS011;38224;50.950;4.100;2022-12-11T06:16:27;83.80;;;35.13;;
52268;SDS011;38224;50.950;4.100;2022-12-11T06:18:52;79.68;;;36.83;;
52268;SDS011;38224;50.950;4.100;2022-12-11T06:21:22;83.95;;;37.15;;
52268;SDS011;38224;50.950;4.100;2022-12-11T06:23:48;81.30;;;34.63;;
52268;SDS011;38224;50.950;4.100;2022-12-11T06:26:14;81.72;;;36.15;;
52268;SDS011;38224;50.950;4.100;2022-12-11T06:28:40;85.32;;;34.45;;
52268;SDS011;38224;50.950;4.100;2022-12-11T06:31:05;86.85;;;37.22;;
52268;SDS011;38224;50.950;4.100;2022-12-11T06:33:31;88.35;;;35.88;;
52268;SDS011;38224;50.950;4.100;2022-12-11T06:36:00;84.20;;;35.35;;
52268;SDS011;38224;50.950;4.100;2022-12-11T06:38:25;81.13;;;36.13;;
52268;SDS011;38224;50.950;4.100;2022-12-11T06:40:57;85.07;;;34.93;;
52268;SDS011;38224;50.950;4.100;2022-12-11T06:43:22;82.77;;;33.40;;
52268;SDS011;38224;50.950;4.100;2022-12-11T06:45:48;80.93;;;35.78;;
52268;SDS011;38224;50.950;4.100;2022-12-11T06:48:14;82.97;;;36.58;;
52268;SDS011;38224;50.950;4.100;2022-12-11T06:50:39;82.43;;;33.87;;
52268;SDS011;38224;50.950;4.100;2022-12-11T06:53:04;81.53;;;32.67;;
52268;SDS011;38224;50.950;4.100;2022-12-11T06:55:29;83.63;;;32.00;;
52268;SDS011;38224;50.950;4.100;2022-12-11T06:57:55;89.17;;;35.23;;
52268;SDS011;38224;50.950;4.100;2022-12-11T07:00:20;76.80;;;34.63;;
52268;SDS011;38224;50.950;4.100;2022-12-11T07:02:45;87.40;;;36.05;;
52268;SDS011;38224;50.950;4.100;2022-12-11T07:05:10;81.88;;;37.60;;
52268;SDS011;38224;50.950;4.100;2022-12-11T07:07:36;78.35;;;34.47;;
52268;SDS011;38224;50.950;4.100;2022-12-11T07:10:01;81.50;;;36.10;;
52268;SDS011;38224;50.950;4.100;2022-12-11T07:12:27;79.18;;;35.40;;
52268;SDS011;38224;50.950;4.100;2022-12-11T07:14:52;77.63;;;34.20;;
52268;SDS011;38224;50.950;4.100;2022-12-11T07:17:17;73.27;;;33.00;;
52268;SDS011;38224;50.950;4.100;2022-12-11T07:19:42;76.10;;;33.95;;
52268;SDS011;38224;50.950;4.100;2022-12-11T07:22:08;73.88;;;32.40;;
52268;SDS011;38224;50.950;4.100;2022-12-11T07:24:34;75.75;;;32.95;;
52268;SDS011;38224;50.950;4.100;2022-12-11T07:26:59;67.77;;;30.10;;
52268;SDS011;38224;50.950;4.100;2022-12-11T07:29:24;80.00;;;33.60;;
52268;SDS011;38224;50.950;4.100;2022-12-11T07:31:49;71.90;;;29.87;;
52268;SDS011;38224;50.950;4.100;2022-12-11T07:34:15;72.38;;;31.65;;
52268;SDS011;38224;50.950;4.100;2022-12-11T07:36:42;71.82;;;30.98;;
52268;SDS011;38224;50.950;4.100;2022-12-11T07:39:09;71.95;;;30.52;;
52268;SDS011;38224;50.950;4.100;2022-12-11T07:41:34;68.38;;;29.52;;
52268;SDS011;38224;50.950;4.100;2022-12-11T07:43:59;66.03;;;28.92;;
52268;SDS011;38224;50.950;4.100;2022-12-11T07:46:26;73.43;;;29.77;;
52268;SDS011;38224;50.950;4.100;2022-12-11T07:48:52;70.40;;;31.40;;
52268;SDS011;38224;50.950;4.100;2022-12-11T07:53:43;72.20;;;30.40;;
52268;SDS011;38224;50.950;4.100;2022-12-11T07:56:09;78.93;;;32.22;;
52268;SDS011;38224;50.950;4.100;2022-12-11T07:58:34;76.00;;;32.78;;
52268;SDS011;38224;50.950;4.100;2022-12-11T08:01:00;76.63;;;33.08;;
52268;SDS011;38224;50.950;4.100;2022-12-11T08:03:25;74.38;;;31.20;;
52268;SDS011;38224;50.950;4.100;2022-12-11T08:05:51;68.07;;;28.70;;
52268;SDS011;38224;50.950;4.100;2022-12-11T08:08:16;65.40;;;30.00;;
52268;SDS011;38224;50.950;4.100;2022-12-11T08:10:42;65.18;;;28.88;;
52268;SDS011;38224;50.950;4.100;2022-12-11T08:13:07;73.82;;;31.42;;
52268;SDS011;38224;50.950;4.100;2022-12-11T08:15:32;64.72;;;27.60;;
52268;SDS011;38224;50.950;4.100;2022-12-11T08:17:58;73.18;;;29.23;;
52268;SDS011;38224;50.950;4.100;2022-12-11T08:20:23;72.70;;;30.15;;
52268;SDS011;38224;50.950;4.100;2022-12-11T08:22:49;67.80;;;30.10;;
52268;SDS011;38224;50.950;4.100;2022-12-11T08:25:14;71.45;;;32.47;;
52268;SDS011;38224;50.950;4.100;2022-12-11T08:27:39;70.97;;;30.58;;
52268;SDS011;38224;50.950;4.100;2022-12-11T08:30:04;104.97;;;40.72;;
52268;SDS011;38224;50.950;4.100;2022-12-11T08:32:30;99.28;;;37.78;;
52268;SDS011;38224;50.950;4.100;2022-12-11T08:34:55;95.23;;;34.40;;
52268;SDS011;38224;50.950;4.100;2022-12-11T08:37:20;83.32;;;34.22;;
52268;SDS011;38224;50.950;4.100;2022-12-11T08:39:46;78.03;;;32.38;;
52268;SDS011;38224;50.950;4.100;2022-12-11T08:42:11;73.88;;;30.02;;
52268;SDS011;38224;50.950;4.100;2022-12-11T08:44:36;67.50;;;28.08;;
52268;SDS011;38224;50.950;4.100;2022-12-11T08:47:02;66.03;;;27.25;;
52268;SDS011;38224;50.950;4.100;2022-12-11T08:49:27;63.25;;;28.42;;
52268;SDS011;38224;50.950;4.100;2022-12-11T08:51:52;65.45;;;26.70;;
52268;SDS011;38224;50.950;4.100;2022-12-11T08:54:18;65.15;;;27.92;;
52268;SDS011;38224;50.950;4.100;2022-12-11T08:56:43;67.38;;;27.50;;
52268;SDS011;38224;50.950;4.100;2022-12-11T08:59:09;63.60;;;27.33;;
52268;SDS011;38224;50.950;4.100;2022-12-11T09:01:34;65.18;;;29.08;;
52268;SDS011;38224;50.950;4.100;2022-12-11T09:04:00;69.50;;;28.23;;
52268;SDS011;38224;50.950;4.100;2022-12-11T09:06:26;72.57;;;29.05;;
52268;SDS011;38224;50.950;4.100;2022-12-11T09:08:52;65.78;;;26.20;;
52268;SDS011;38224;50.950;4.100;2022-12-11T09:11:19;68.80;;;27.92;;
52268;SDS011;38224;50.950;4.100;2022-12-11T09:13:44;72.00;;;30.20;;
52268;SDS011;38224;50.950;4.100;2022-12-11T09:16:12;70.38;;;30.30;;
52268;SDS011;38224;50.950;4.100;2022-12-11T09:18:38;64.85;;;27.65;;
52268;SDS011;38224;50.950;4.100;2022-12-11T09:21:05;70.47;;;29.13;;
52268;SDS011;38224;50.950;4.100;2022-12-11T09:23:30;68.05;;;28.95;;
52268;SDS011;38224;50.950;4.100;2022-12-11T09:25:57;69.88;;;29.80;;
52268;SDS011;38224;50.950;4.100;2022-12-11T09:28:22;75.72;;;30.25;;
52268;SDS011;38224;50.950;4.100;2022-12-11T09:30:48;73.85;;;30.35;;
52268;SDS011;38224;50.950;4.100;2022-12-11T09:33:13;77.22;;;30.75;;
52268;SDS011;38224;50.950;4.100;2022-12-11T09:35:38;73.93;;;29.40;;
52268;SDS011;38224;50.950;4.100;2022-12-11T09:38:04;70.93;;;27.70;;
52268;SDS011;38224;50.950;4.100;2022-12-11T09:40:30;79.45;;;31.65;;
52268;SDS011;38224;50.950;4.100;2022-12-11T09:43:17;77.00;;;30.08;;
52268;SDS011;38224;50.950;4.100;2022-12-11T09:45:44;69.72;;;27.00;;
52268;SDS011;38224;50.950;4.100;2022-12-11T09:48:09;73.47;;;30.20;;
52268;SDS011;38224;50.950;4.100;2022-12-11T09:50:35;84.80;;;31.02;;
52268;SDS011;38224;50.950;4.100;2022-12-11T09:53:17;93.35;;;36.78;;
52268;SDS011;38224;50.950;4.100;2022-12-11T10:00:40;76.25;;;32.80;;
52268;SDS011;38224;50.950;4.100;2022-12-11T10:03:19;77.18;;;31.85;;
52268;SDS011;38224;50.950;4.100;2022-12-11T10:06:06;89.40;;;33.05;;
52268;SDS011;38224;50.950;4.100;2022-12-11T10:11:30;80.18;;;28.30;;
52268;SDS011;38224;50.950;4.100;2022-12-11T10:16:44;73.03;;;29.92;;
52268;SDS011;38224;50.950;4.100;2022-12-11T10:19:18;68.50;;;26.23;;
52268;SDS011;38224;50.950;4.100;2022-12-11T10:24:43;69.70;;;26.33;;
52268;SDS011;38224;50.950;4.100;2022-12-11T10:27:08;70.68;;;27.40;;
52268;SDS011;38224;50.950;4.100;2022-12-11T10:29:37;72.15;;;29.13;;
52268;SDS011;38224;50.950;4.100;2022-12-11T10:32:02;78.70;;;29.98;;
52268;SDS011;38224;50.950;4.100;2022-12-11T10:34:33;62.00;;;25.58;;
52268;SDS011;38224;50.950;4.100;2022-12-11T10:36:59;65.05;;;24.90;;
52268;SDS011;38224;50.950;4.100;2022-12-11T10:39:24;67.60;;;28.40;;
52268;SDS011;38224;50.950;4.100;2022-12-11T10:41:51;69.45;;;27.92;;
52268;SDS011;38224;50.950;4.100;2022-12-11T10:46:42;63.15;;;27.17;;
52268;SDS011;38224;50.950;4.100;2022-12-11T10:49:19;64.70;;;26.92;;
52268;SDS011;38224;50.950;4.100;2022-12-11T10:51:44;65.18;;;26.08;;
52268;SDS011;38224;50.950;4.100;2022-12-11T10:56:43;67.78;;;27.17;;
52268;SDS011;38224;50.950;4.100;2022-12-11T10:59:16;58.33;;;25.17;;
52268;SDS011;38224;50.950;4.100;2022-12-11T11:01:45;63.10;;;25.45;;
52268;SDS011;38224;50.950;4.100;2022-12-11T11:04:14;56.20;;;24.45;;
52268;SDS011;38224;50.950;4.100;2022-12-11T11:06:43;62.78;;;26.40;;
52268;SDS011;38224;50.950;4.100;2022-12-11T11:12:19;62.85;;;23.75;;
52268;SDS011;38224;50.950;4.100;2022-12-11T11:14:44;57.33;;;23.98;;
52268;SDS011;38224;50.950;4.100;2022-12-11T11:17:13;61.73;;;23.63;;
52268;SDS011;38224;50.950;4.100;2022-12-11T11:19:39;60.28;;;23.67;;
52268;SDS011;38224;50.950;4.100;2022-12-11T11:22:12;55.28;;;23.75;;
52268;SDS011;38224;50.950;4.100;2022-12-11T11:27:10;56.47;;;20.77;;
52268;SDS011;38224;50.950;4.100;2022-12-11T11:29:36;56.33;;;22.38;;
52268;SDS011;38224;50.950;4.100;2022-12-11T11:34:39;61.42;;;24.90;;
52268;SDS011;38224;50.950;4.100;2022-12-11T11:37:04;52.83;;;23.20;;
52268;SDS011;38224;50.950;4.100;2022-12-11T11:39:32;54.40;;;21.88;;
52268;SDS011;38224;50.950;4.100;2022-12-11T11:44:35;54.83;;;22.63;;
52268;SDS011;38224;50.950;4.100;2022-12-11T11:47:16;53.58;;;24.17;;
52268;SDS011;38224;50.950;4.100;2022-12-11T11:49:45;52.97;;;24.15;;
52268;SDS011;38224;50.950;4.100;2022-12-11T11:57:25;46.63;;;19.75;;
52268;SDS011;38224;50.950;4.100;2022-12-11T11:59:53;51.90;;;20.83;;
52268;SDS011;38224;50.950;4.100;2022-12-11T12:02:20;44.38;;;20.50;;
52268;SDS011;38224;50.950;4.100;2022-12-11T12:04:45;44.28;;;21.23;;
52268;SDS011;38224;50.950;4.100;2022-12-11T12:12:17;56.78;;;22.63;;
52268;SDS011;38224;50.950;4.100;2022-12-11T12:14:51;84.70;;;38.88;;
52268;SDS011;38224;50.950;4.100;2022-12-11T12:17:43;85.07;;;38.15;;
52268;SDS011;38224;50.950;4.100;2022-12-11T12:20:23;60.97;;;26.20;;
52268;SDS011;38224;50.950;4.100;2022-12-11T12:22:55;63.63;;;26.83;;
52268;SDS011;38224;50.950;4.100;2022-12-11T12:25:36;56.28;;;23.65;;
52268;SDS011;38224;50.950;4.100;2022-12-11T12:30:29;50.60;;;23.77;;
52268;SDS011;38224;50.950;4.100;2022-12-11T12:45:27;60.78;;;26.27;;
52268;SDS011;38224;50.950;4.100;2022-12-11T12:47:55;61.60;;;25.02;;
52268;SDS011;38224;50.950;4.100;2022-12-11T12:50:21;54.38;;;24.85;;
52268;SDS011;38224;50.950;4.100;2022-12-11T12:52:47;60.70;;;26.77;;
52268;SDS011;38224;50.950;4.100;2022-12-11T12:55:18;59.95;;;26.17;;
52268;SDS011;38224;50.950;4.100;2022-12-11T12:58:00;63.17;;;26.55;;
52268;SDS011;38224;50.950;4.100;2022-12-11T13:00:36;58.55;;;26.30;;
52268;SDS011;38224;50.950;4.100;2022-12-11T13:03:24;62.25;;;28.35;;
52268;SDS011;38224;50.950;4.100;2022-12-11T13:08:23;64.20;;;26.67;;
52268;SDS011;38224;50.950;4.100;2022-12-11T13:10:55;61.55;;;26.27;;
52268;SDS011;38224;50.950;4.100;2022-12-11T13:13:33;58.95;;;26.90;;
52268;SDS011;38224;50.950;4.100;2022-12-11T13:16:22;61.95;;;26.15;;
52268;SDS011;38224;50.950;4.100;2022-12-11T13:18:48;66.85;;;27.13;;
52268;SDS011;38224;50.950;4.100;2022-12-11T13:23:50;62.42;;;25.67;;
52268;SDS011;38224;50.950;4.100;2022-12-11T13:26:37;64.13;;;27.63;;
52268;SDS011;38224;50.950;4.100;2022-12-11T13:29:01;60.72;;;26.98;;
52268;SDS011;38224;50.950;4.100;2022-12-11T13:31:29;63.47;;;28.92;;
52268;SDS011;38224;50.950;4.100;2022-12-11T13:33:56;80.85;;;34.58;;
52268;SDS011;38224;50.950;4.100;2022-12-11T13:36:24;80.38;;;32.85;;
52268;SDS011;38224;50.950;4.100;2022-12-11T13:38:54;76.65;;;30.55;;
52268;SDS011;38224;50.950;4.100;2022-12-11T13:41:20;66.30;;;30.00;;
52268;SDS011;38224;50.950;4.100;2022-12-11T13:43:47;62.83;;;27.58;;
52268;SDS011;38224;50.950;4.100;2022-12-11T13:46:13;60.85;;;27.75;;
52268;SDS011;38224;50.950;4.100;2022-12-11T13:51:05;66.03;;;28.10;;
52268;SDS011;38224;50.950;4.100;2022-12-11T13:53:30;59.40;;;26.35;;
52268;SDS011;38224;50.950;4.100;2022-12-11T13:55:56;62.38;;;26.92;;
52268;SDS011;38224;50.950;4.100;2022-12-11T13:58:22;55.97;;;27.35;;
52268;SDS011;38224;50.950;4.100;2022-12-11T14:03:28;59.70;;;27.13;;
52268;SDS011;38224;50.950;4.100;2022-12-11T14:05:54;58.30;;;24.73;;
52268;SDS011;38224;50.950;4.100;2022-12-11T14:08:21;64.30;;;29.75;;
52268;SDS011;38224;50.950;4.100;2022-12-11T14:10:51;54.70;;;27.77;;
52268;SDS011;38224;50.950;4.100;2022-12-11T14:15:44;68.28;;;28.83;;
52268;SDS011;38224;50.950;4.100;2022-12-11T14:18:17;63.28;;;27.40;;
52268;SDS011;38224;50.950;4.100;2022-12-11T14:20:44;67.25;;;29.45;;
52268;SDS011;38224;50.950;4.100;2022-12-11T14:23:16;68.85;;;28.05;;
52268;SDS011;38224;50.950;4.100;2022-12-11T14:25:42;72.45;;;29.65;;
52268;SDS011;38224;50.950;4.100;2022-12-11T14:28:15;60.60;;;28.45;;
52268;SDS011;38224;50.950;4.100;2022-12-11T14:30:44;61.20;;;28.30;;
52268;SDS011;38224;50.950;4.100;2022-12-11T14:33:10;69.20;;;28.70;;
52268;SDS011;38224;50.950;4.100;2022-12-11T14:35:37;64.15;;;29.58;;
52268;SDS011;38224;50.950;4.100;2022-12-11T14:38:06;69.65;;;29.52;;
52268;SDS011;38224;50.950;4.100;2022-12-11T14:40:35;59.20;;;26.65;;
52268;SDS011;38224;50.950;4.100;2022-12-11T14:43:07;65.30;;;28.85;;
52268;SDS011;38224;50.950;4.100;2022-12-11T14:45:35;77.50;;;30.88;;
52268;SDS011;38224;50.950;4.100;2022-12-11T14:48:01;70.13;;;33.58;;
52268;SDS011;38224;50.950;4.100;2022-12-11T14:53:01;64.33;;;30.67;;
52268;SDS011;38224;50.950;4.100;2022-12-11T14:55:31;60.50;;;27.35;;
52268;SDS011;38224;50.950;4.100;2022-12-11T14:57:59;63.15;;;28.08;;
52268;SDS011;38224;50.950;4.100;2022-12-11T15:00:29;65.85;;;29.13;;
52268;SDS011;38224;50.950;4.100;2022-12-11T15:03:03;70.63;;;31.67;;
52268;SDS011;38224;50.950;4.100;2022-12-11T15:05:29;56.75;;;28.67;;
52268;SDS011;38224;50.950;4.100;2022-12-11T15:07:56;59.47;;;27.45;;
52268;SDS011;38224;50.950;4.100;2022-12-11T15:10:35;52.72;;;26.13;;
52268;SDS011;38224;50.950;4.100;2022-12-11T15:13:05;56.40;;;25.73;;
52268;SDS011;38224;50.950;4.100;2022-12-11T15:15:31;54.83;;;26.88;;
52268;SDS011;38224;50.950;4.100;2022-12-11T15:17:57;59.50;;;26.98;;
52268;SDS011;38224;50.950;4.100;2022-12-11T15:20:27;61.08;;;28.35;;
52268;SDS011;38224;50.950;4.100;2022-12-11T15:22:56;59.22;;;28.73;;
52268;SDS011;38224;50.950;4.100;2022-12-11T15:25:23;59.70;;;28.63;;
52268;SDS011;38224;50.950;4.100;2022-12-11T15:27:50;62.72;;;28.65;;
52268;SDS011;38224;50.950;4.100;2022-12-11T15:35:36;57.40;;;27.45;;
52268;SDS011;38224;50.950;4.100;2022-12-11T15:38:02;59.05;;;26.90;;
52268;SDS011;38224;50.950;4.100;2022-12-11T15:40:27;60.10;;;27.10;;
52268;SDS011;38224;50.950;4.100;2022-12-11T15:42:53;58.80;;;27.58;;
52268;SDS011;38224;50.950;4.100;2022-12-11T15:45:24;58.67;;;29.25;;
52268;SDS011;38224;50.950;4.100;2022-12-11T15:47:52;67.78;;;30.60;;
52268;SDS011;38224;50.950;4.100;2022-12-11T15:50:19;62.15;;;28.70;;
52268;SDS011;38224;50.950;4.100;2022-12-11T15:52:45;71.90;;;30.25;;